Time;durP1;ratioP1;P1;durP2;ratioP2;P2;SDS_P1;SDS_P2;PMS_P1;PMS_P2;Temp;Humidity;BMP_temperature;BMP_pressure;BME280_temperature;BME280_humidity;BME280_pressure;Samples;Min_cycle;Max_cycle;Signal;HPM_P1;HPM_P2
2022/03/14 00:00:39;;;;;;;15.33;11.73;;;;;;;;;;6218236;23;20154;-83
2022/03/14 00:03:05;;;;;;;21.70;12.70;;;;;;;;;;6218513;23;20201;-82
2022/03/14 00:05:32;;;;;;;15.33;11.97;;;;;;;;;;6192953;23;20594;-82
2022/03/14 00:07:59;;;;;;;23.70;12.90;;;;;;;;;;6220401;23;20153;-83
2022/03/14 00:10:25;;;;;;;20.53;12.10;;;;;;;;;;6220800;23;20606;-83
2022/03/14 00:12:56;;;;;;;17.77;12.17;;;;;;;;;;6220317;23;20150;-84
2022/03/14 00:15:22;;;;;;;16.33;12.33;;;;;;;;;;6192730;23;20607;-83
2022/03/14 00:17:49;;;;;;;17.73;11.33;;;;;;;;;;6193250;23;20208;-83
2022/03/14 00:20:16;;;;;;;15.57;9.97;;;;;;;;;;6220775;23;20196;-84
2022/03/14 00:22:44;;;;;;;13.13;9.30;;;;;;;;;;6220723;23;20168;-83
2022/03/14 00:25:11;;;;;;;10.03;8.47;;;;;;;;;;6219788;23;20179;-84
2022/03/14 00:27:37;;;;;;;9.97;8.60;;;;;;;;;;6192753;23;20231;-83
2022/03/14 00:30:04;;;;;;;9.83;7.87;;;;;;;;;;6219810;23;20164;-83
2022/03/14 00:32:30;;;;;;;10.03;7.10;;;;;;;;;;6219983;23;20516;-84
2022/03/14 00:34:57;;;;;;;9.43;6.87;;;;;;;;;;6191876;23;20207;-84
2022/03/14 00:37:23;;;;;;;8.70;6.53;;;;;;;;;;6217962;23;20168;-83
2022/03/14 00:39:49;;;;;;;6.80;6.20;;;;;;;;;;6218943;23;20157;-84
2022/03/14 00:42:15;;;;;;;6.93;6.27;;;;;;;;;;6220323;23;20149;-83
2022/03/14 00:44:42;;;;;;;9.47;6.23;;;;;;;;;;6221660;23;20157;-82
2022/03/14 00:47:08;;;;;;;6.10;5.60;;;;;;;;;;6221899;23;20198;-83
2022/03/14 00:49:34;;;;;;;6.73;6.03;;;;;;;;;;6221944;23;20245;-83
2022/03/14 00:52:01;;;;;;;6.30;5.53;;;;;;;;;;6222288;23;20251;-84
2022/03/14 00:54:27;;;;;;;6.03;5.43;;;;;;;;;;6222028;23;20633;-81
2022/03/14 00:56:53;;;;;;;5.13;4.73;;;;;;;;;;6194937;23;20176;-84
2022/03/14 00:59:20;;;;;;;5.03;4.57;;;;;;;;;;6221745;23;20145;-83
2022/03/14 01:01:46;;;;;;;5.10;4.60;;;;;;;;;;6195027;23;20188;-82
2022/03/14 01:04:12;;;;;;;5.77;4.60;;;;;;;;;;6195421;23;20546;-83
2022/03/14 01:06:38;;;;;;;4.53;4.17;;;;;;;;;;6221855;23;20619;-83
2022/03/14 01:09:04;;;;;;;4.87;4.07;;;;;;;;;;6222128;23;20191;-83
2022/03/14 01:11:31;;;;;;;5.13;3.60;;;;;;;;;;6220847;23;20199;-83
2022/03/14 01:13:56;;;;;;;3.20;2.90;;;;;;;;;;6220792;23;20172;-83
2022/03/14 01:16:23;;;;;;;3.30;2.70;;;;;;;;;;6221188;23;20501;-83
2022/03/14 01:18:48;;;;;;;2.63;2.43;;;;;;;;;;6222255;23;20183;-83
2022/03/14 01:21:14;;;;;;;2.60;2.40;;;;;;;;;;6223720;23;20232;-83
2022/03/14 01:23:40;;;;;;;3.17;2.30;;;;;;;;;;6222112;23;20597;-82
2022/03/14 01:26:08;;;;;;;2.67;2.47;;;;;;;;;;6194419;23;20252;-81
2022/03/14 01:28:34;;;;;;;2.57;2.37;;;;;;;;;;6229192;23;20244;-81
2022/03/14 01:31:00;;;;;;;2.43;2.23;;;;;;;;;;6228655;23;20614;-81
2022/03/14 01:33:26;;;;;;;2.10;1.90;;;;;;;;;;6230224;23;20256;-81
2022/03/14 01:35:52;;;;;;;1.93;1.63;;;;;;;;;;6230308;23;20158;-81
2022/03/14 01:38:18;;;;;;;1.70;1.60;;;;;;;;;;6230007;23;20638;-81
2022/03/14 01:40:44;;;;;;;2.13;1.93;;;;;;;;;;6229975;23;20156;-81
2022/03/14 01:43:10;;;;;;;1.83;1.70;;;;;;;;;;6225351;23;20153;-82
2022/03/14 01:45:36;;;;;;;1.47;1.37;;;;;;;;;;6226663;23;20162;-82
2022/03/14 01:48:05;;;;;;;1.70;1.40;;;;;;;;;;6227953;23;20169;-82
2022/03/14 01:50:31;;;;;;;1.30;1.20;;;;;;;;;;6225864;23;20184;-82
2022/03/14 01:52:57;;;;;;;1.40;1.30;;;;;;;;;;6226531;23;20145;-82
2022/03/14 01:55:23;;;;;;;1.20;1.10;;;;;;;;;;6226630;23;20245;-82
2022/03/14 01:57:49;;;;;;;1.70;1.03;;;;;;;;;;6228286;23;20199;-82
2022/03/14 02:00:15;;;;;;;1.30;1.13;;;;;;;;;;6226471;23;20211;-82
2022/03/14 02:02:42;;;;;;;1.57;1.20;;;;;;;;;;6225950;23;20153;-82
2022/03/14 02:05:09;;;;;;;1.30;1.20;;;;;;;;;;6227332;23;20489;-82
2022/03/14 02:07:35;;;;;;;1.60;1.50;;;;;;;;;;6228431;23;20189;-82
2022/03/14 02:10:01;;;;;;;1.30;1.20;;;;;;;;;;6229194;23;20583;-82
2022/03/14 02:12:27;;;;;;;1.20;1.10;;;;;;;;;;6229763;23;20157;-82
2022/03/14 02:14:53;;;;;;;1.40;1.20;;;;;;;;;;6229688;23;20181;-82
2022/03/14 02:17:22;;;;;;;2.60;1.27;;;;;;;;;;6229063;23;20200;-82
2022/03/14 02:19:49;;;;;;;1.50;1.40;;;;;;;;;;6233919;23;20223;-82
2022/03/14 02:22:15;;;;;;;1.47;1.37;;;;;;;;;;6238535;23;20146;-82
2022/03/14 02:24:42;;;;;;;1.37;1.27;;;;;;;;;;6186078;23;20161;-82
2022/03/14 02:27:08;;;;;;;1.60;1.07;;;;;;;;;;6233335;23;20193;-82
2022/03/14 02:29:34;;;;;;;1.30;1.20;;;;;;;;;;6231775;23;20594;-82
2022/03/14 02:32:00;;;;;;;1.20;1.10;;;;;;;;;;6232770;23;20163;-82
2022/03/14 02:34:26;;;;;;;1.20;1.10;;;;;;;;;;6231603;23;20207;-82
2022/03/14 02:36:52;;;;;;;1.00;0.90;;;;;;;;;;6231036;23;20185;-82
2022/03/14 02:39:18;;;;;;;0.67;0.67;;;;;;;;;;6230887;23;20573;-81
2022/03/14 02:41:46;;;;;;;1.23;1.00;;;;;;;;;;6231547;23;20171;-82
2022/03/14 02:44:13;;;;;;;0.80;0.80;;;;;;;;;;6232218;23;20156;-82
2022/03/14 02:46:40;;;;;;;0.80;0.80;;;;;;;;;;6231356;23;20178;-81
2022/03/14 02:49:06;;;;;;;0.80;0.80;;;;;;;;;;6228042;23;20150;-82
2022/03/14 02:51:34;;;;;;;0.60;0.60;;;;;;;;;;6228762;23;20215;-82
2022/03/14 02:54:02;;;;;;;0.60;0.60;;;;;;;;;;6230352;23;20175;-82
2022/03/14 02:56:28;;;;;;;1.17;0.57;;;;;;;;;;6230098;23;20178;-83
2022/03/14 02:58:54;;;;;;;1.00;0.60;;;;;;;;;;6229601;23;20590;-82
2022/03/14 03:01:23;;;;;;;0.50;0.50;;;;;;;;;;6229565;23;20176;-83
2022/03/14 03:03:50;;;;;;;0.73;0.40;;;;;;;;;;6227463;23;20210;-83
2022/03/14 03:06:22;;;;;;;0.63;0.60;;;;;;;;;;6228355;23;20161;-82
2022/03/14 03:08:48;;;;;;;0.60;0.40;;;;;;;;;;6229410;23;20142;-83
2022/03/14 03:11:14;;;;;;;0.40;0.30;;;;;;;;;;6229283;23;20168;-82
2022/03/14 03:13:43;;;;;;;0.80;0.70;;;;;;;;;;6224319;23;20213;-83
2022/03/14 03:16:13;;;;;;;1.03;0.80;;;;;;;;;;6227020;23;20149;-83
2022/03/14 03:18:39;;;;;;;0.50;0.50;;;;;;;;;;6224380;23;20158;-83
2022/03/14 03:21:05;;;;;;;0.83;0.80;;;;;;;;;;6226557;23;20190;-83
2022/03/14 03:23:33;;;;;;;0.40;0.40;;;;;;;;;;6225868;23;20163;-83
2022/03/14 03:25:59;;;;;;;0.40;0.40;;;;;;;;;;6225634;23;20171;-83
2022/03/14 03:28:25;;;;;;;0.40;0.37;;;;;;;;;;6224054;23;20180;-83
2022/03/14 03:30:51;;;;;;;0.40;0.40;;;;;;;;;;6223234;23;20667;-82
2022/03/14 03:33:18;;;;;;;0.70;0.50;;;;;;;;;;6224126;23;20151;-82
2022/03/14 03:35:44;;;;;;;0.50;0.40;;;;;;;;;;6224478;23;20151;-82
2022/03/14 03:38:10;;;;;;;0.47;0.47;;;;;;;;;;6223390;23;20174;-82
2022/03/14 03:40:36;;;;;;;0.60;0.60;;;;;;;;;;6227959;23;20182;-82
2022/03/14 03:43:02;;;;;;;0.60;0.60;;;;;;;;;;6226894;23;20151;-82
2022/03/14 03:45:28;;;;;;;0.50;0.50;;;;;;;;;;6227130;23;20180;-82
2022/03/14 03:47:54;;;;;;;0.40;0.40;;;;;;;;;;6224707;23;20180;-83
2022/03/14 03:50:20;;;;;;;0.50;0.50;;;;;;;;;;6225442;23;20512;-82
2022/03/14 03:52:46;;;;;;;0.43;0.43;;;;;;;;;;6225167;23;20166;-82
2022/03/14 03:55:12;;;;;;;0.87;0.60;;;;;;;;;;6225796;23;20180;-82
2022/03/14 03:57:38;;;;;;;0.50;0.50;;;;;;;;;;6227787;23;20190;-82
2022/03/14 04:00:06;;;;;;;0.50;0.50;;;;;;;;;;6226539;23;20153;-82
2022/03/14 04:02:36;;;;;;;0.70;0.70;;;;;;;;;;6228109;23;20178;-82
2022/03/14 04:05:02;;;;;;;0.70;0.70;;;;;;;;;;6228311;23;20176;-82
2022/03/14 04:07:31;;;;;;;1.03;0.93;;;;;;;;;;6227056;23;20193;-82
2022/03/14 04:09:57;;;;;;;1.30;1.00;;;;;;;;;;6228216;23;20157;-82
2022/03/14 04:12:25;;;;;;;1.23;1.13;;;;;;;;;;6228205;23;20532;-82
2022/03/14 04:14:51;;;;;;;1.20;1.10;;;;;;;;;;6225525;23;20181;-82
2022/03/14 04:17:18;;;;;;;1.03;0.93;;;;;;;;;;6227454;23;20177;-82
2022/03/14 04:19:44;;;;;;;1.97;1.77;;;;;;;;;;6229398;23;20154;-82
2022/03/14 04:22:12;;;;;;;1.23;1.13;;;;;;;;;;6228807;23;20527;-82
2022/03/14 04:24:38;;;;;;;1.47;1.37;;;;;;;;;;6226334;23;20162;-82
2022/03/14 04:27:05;;;;;;;1.50;1.40;;;;;;;;;;6227737;23;20186;-82
2022/03/14 04:29:31;;;;;;;1.47;1.33;;;;;;;;;;6228141;23;20161;-82
2022/03/14 04:31:57;;;;;;;1.43;1.33;;;;;;;;;;6227131;23;20163;-82
2022/03/14 04:34:23;;;;;;;1.13;1.03;;;;;;;;;;6228117;23;20191;-82
2022/03/14 04:36:50;;;;;;;1.30;1.20;;;;;;;;;;6227473;23;20231;-82
2022/03/14 04:39:17;;;;;;;1.47;1.30;;;;;;;;;;6229357;23;20147;-82
2022/03/14 04:41:43;;;;;;;2.10;1.50;;;;;;;;;;6227002;23;20143;-82
2022/03/14 04:44:09;;;;;;;1.40;1.30;;;;;;;;;;6228438;23;20239;-82
2022/03/14 04:46:35;;;;;;;1.80;1.27;;;;;;;;;;6229902;23;20183;-82
2022/03/14 04:49:02;;;;;;;2.03;1.40;;;;;;;;;;6228070;23;20242;-82
2022/03/14 04:51:28;;;;;;;1.43;1.33;;;;;;;;;;6228755;23;20481;-82
2022/03/14 04:53:55;;;;;;;1.30;1.20;;;;;;;;;;6228959;23;20191;-81
2022/03/14 04:56:21;;;;;;;2.47;2.00;;;;;;;;;;6227052;23;20620;-82
2022/03/14 04:58:47;;;;;;;2.47;2.10;;;;;;;;;;6228071;23;20144;-82
2022/03/14 05:01:13;;;;;;;1.23;1.13;;;;;;;;;;6227777;23;20260;-81
2022/03/14 05:03:39;;;;;;;1.63;1.40;;;;;;;;;;6229382;23;20164;-81
2022/03/14 05:06:05;;;;;;;1.30;1.20;;;;;;;;;;6228435;23;20156;-82
2022/03/14 05:08:31;;;;;;;1.50;1.40;;;;;;;;;;6227212;23;20151;-81
2022/03/14 05:10:58;;;;;;;1.37;1.27;;;;;;;;;;6224644;23;20186;-82
2022/03/14 05:13:25;;;;;;;1.70;1.60;;;;;;;;;;6228651;23;20214;-82
2022/03/14 05:15:51;;;;;;;1.37;1.27;;;;;;;;;;6226566;23;20157;-82
2022/03/14 05:18:17;;;;;;;1.53;1.43;;;;;;;;;;6227493;23;20175;-81
2022/03/14 05:20:43;;;;;;;1.87;1.77;;;;;;;;;;6229805;23;20152;-81
2022/03/14 05:23:09;;;;;;;1.50;1.40;;;;;;;;;;6228532;23;20142;-82
2022/03/14 05:25:35;;;;;;;1.87;1.20;;;;;;;;;;6227898;23;20152;-81
2022/03/14 05:28:01;;;;;;;3.83;1.50;;;;;;;;;;6228803;23;20177;-81
2022/03/14 05:30:27;;;;;;;1.83;1.50;;;;;;;;;;6226934;23;20184;-81
2022/03/14 05:32:53;;;;;;;1.40;1.30;;;;;;;;;;6228333;23;20494;-82
2022/03/14 05:35:20;;;;;;;1.40;1.30;;;;;;;;;;6228466;23;20182;-82
2022/03/14 05:37:46;;;;;;;1.53;1.20;;;;;;;;;;6228200;23;20747;-82
2022/03/14 05:40:15;;;;;;;1.17;1.10;;;;;;;;;;6229397;23;20148;-83
2022/03/14 05:42:42;;;;;;;1.40;1.10;;;;;;;;;;6228319;23;20156;-82
2022/03/14 05:45:09;;;;;;;1.50;1.20;;;;;;;;;;6225961;23;20538;-82
2022/03/14 05:47:35;;;;;;;1.30;1.20;;;;;;;;;;6227661;23;20174;-82
2022/03/14 05:50:01;;;;;;;1.30;1.20;;;;;;;;;;6228114;23;20147;-82
2022/03/14 05:52:29;;;;;;;2.23;1.60;;;;;;;;;;6230584;23;20492;-81
2022/03/14 05:54:55;;;;;;;1.63;1.53;;;;;;;;;;6230304;23;20183;-81
2022/03/14 05:57:21;;;;;;;1.60;1.50;;;;;;;;;;6229116;23;20173;-82
2022/03/14 05:59:48;;;;;;;1.00;1.00;;;;;;;;;;6226421;23;20157;-82
2022/03/14 06:02:24;;;;;;;1.60;1.07;;;;;;;;;;6228247;23;20150;-82
2022/03/14 06:04:51;;;;;;;1.30;1.13;;;;;;;;;;6226792;23;20191;-82
2022/03/14 06:07:19;;;;;;;1.00;0.90;;;;;;;;;;6230167;23;20198;-82
2022/03/14 06:09:46;;;;;;;1.00;0.90;;;;;;;;;;6235893;23;20151;-82
2022/03/14 06:12:13;;;;;;;2.00;1.00;;;;;;;;;;6235056;23;20155;-82
2022/03/14 06:14:39;;;;;;;1.33;0.80;;;;;;;;;;6224723;23;20177;-82
2022/03/14 06:17:05;;;;;;;1.00;0.90;;;;;;;;;;6225314;23;20250;-82
2022/03/14 06:19:31;;;;;;;1.23;0.90;;;;;;;;;;6198970;23;20540;-82
2022/03/14 06:21:57;;;;;;;1.03;0.93;;;;;;;;;;6225141;23;20142;-82
2022/03/14 06:24:23;;;;;;;1.00;1.00;;;;;;;;;;6222719;23;20663;-84
2022/03/14 06:26:49;;;;;;;0.90;0.90;;;;;;;;;;6224400;23;20189;-82
2022/03/14 06:29:15;;;;;;;1.47;0.90;;;;;;;;;;6224005;23;20146;-82
2022/03/14 06:31:41;;;;;;;1.00;0.97;;;;;;;;;;6223303;23;20201;-83
2022/03/14 06:34:07;;;;;;;1.10;0.90;;;;;;;;;;6225297;23;20178;-82
2022/03/14 06:36:34;;;;;;;1.30;0.73;;;;;;;;;;6222244;23;20176;-82
2022/03/14 06:39:00;;;;;;;1.97;0.83;;;;;;;;;;6221856;23;20163;-83
2022/03/14 06:41:27;;;;;;;1.00;0.60;;;;;;;;;;6221629;23;20153;-82
2022/03/14 06:43:53;;;;;;;0.60;0.60;;;;;;;;;;6221439;23;20206;-82
2022/03/14 06:46:41;;;;;;;0.60;0.57;;;;;;;;;;6219372;23;20260;-84
2022/03/14 06:49:07;;;;;;;0.60;0.60;;;;;;;;;;6222978;23;20658;-82
2022/03/14 06:51:33;;;;;;;0.60;0.60;;;;;;;;;;6224963;23;20481;-82
2022/03/14 06:53:59;;;;;;;1.47;0.70;;;;;;;;;;6221478;23;20173;-84
2022/03/14 06:56:25;;;;;;;1.10;0.70;;;;;;;;;;6223375;23;20163;-82
2022/03/14 06:58:52;;;;;;;1.10;0.80;;;;;;;;;;6223461;23;20551;-82
2022/03/14 07:01:18;;;;;;;2.90;0.87;;;;;;;;;;6223062;23;20155;-82
2022/03/14 07:03:44;;;;;;;2.30;0.90;;;;;;;;;;6221511;23;20155;-82
2022/03/14 07:06:10;;;;;;;0.70;0.60;;;;;;;;;;6223781;23;20154;-82
2022/03/14 07:08:36;;;;;;;1.83;0.83;;;;;;;;;;6222866;23;20209;-82
2022/03/14 07:11:02;;;;;;;2.10;1.00;;;;;;;;;;6195743;23;20227;-82
2022/03/14 07:13:28;;;;;;;2.20;0.77;;;;;;;;;;6222637;23;20150;-82
2022/03/14 07:15:54;;;;;;;3.23;1.03;;;;;;;;;;6220345;23;20151;-83
2022/03/14 07:18:20;;;;;;;1.13;0.70;;;;;;;;;;6219602;23;20227;-82
2022/03/14 07:20:46;;;;;;;1.77;0.60;;;;;;;;;;6217629;23;20162;-82
2022/03/14 07:23:12;;;;;;;0.93;0.40;;;;;;;;;;6219446;23;20143;-82
2022/03/14 07:25:38;;;;;;;0.80;0.40;;;;;;;;;;6218632;23;20154;-82
2022/03/14 07:28:09;;;;;;;3.20;0.70;;;;;;;;;;6218982;23;20190;-82
2022/03/14 07:30:36;;;;;;;1.17;0.60;;;;;;;;;;6219173;23;20156;-82
2022/03/14 07:33:02;;;;;;;2.83;1.60;;;;;;;;;;6220149;23;20164;-82
2022/03/14 07:35:29;;;;;;;1.63;0.50;;;;;;;;;;6219189;23;20240;-82
2022/03/14 07:37:55;;;;;;;2.63;0.70;;;;;;;;;;6221107;23;20165;-82
2022/03/14 07:40:21;;;;;;;2.73;0.60;;;;;;;;;;6218875;23;20222;-82
2022/03/14 07:42:48;;;;;;;1.10;0.50;;;;;;;;;;6219875;23;20257;-82
2022/03/14 07:45:20;;;;;;;1.80;1.03;;;;;;;;;;6224487;23;20166;-82
2022/03/14 07:47:46;;;;;;;2.77;0.60;;;;;;;;;;6223878;23;20208;-83
2022/03/14 07:50:14;;;;;;;2.67;0.60;;;;;;;;;;6221476;23;20202;-82
2022/03/14 07:52:40;;;;;;;1.47;0.60;;;;;;;;;;6221790;23;20154;-83
2022/03/14 07:55:07;;;;;;;1.40;0.60;;;;;;;;;;6223951;23;20170;-82
2022/03/14 07:57:34;;;;;;;2.33;0.80;;;;;;;;;;6197723;23;20193;-82
2022/03/14 08:00:00;;;;;;;1.00;0.60;;;;;;;;;;6224788;23;20222;-82
2022/03/14 08:02:26;;;;;;;2.87;0.80;;;;;;;;;;6223415;23;20175;-82
2022/03/14 08:04:52;;;;;;;0.90;0.70;;;;;;;;;;6223588;23;20217;-82
2022/03/14 08:07:20;;;;;;;2.60;0.80;;;;;;;;;;6224266;23;20173;-83
2022/03/14 08:09:48;;;;;;;2.67;0.80;;;;;;;;;;6227831;23;20161;-83
2022/03/14 08:19:39;;;;;;;;;;;;;;;;;;;;;
2022/03/14 08:22:36;;;;;;;1.87;0.87;;;;;;;;;;6159840;23;20646;-84
2022/03/14 08:28:42;;;;;;;1.27;0.70;;;;;;;;;;6059387;23;20232;-83
2022/03/14 08:31:36;;;;;;;;;;;;;;;;;;;;;
2022/03/14 08:34:46;;;;;;;;;;;;;;;;;;;;;
2022/03/14 08:40:34;;;;;;;3.97;0.73;;;;;;;;;;6047294;23;20330;-83
2022/03/14 08:43:29;;;;;;;2.33;0.60;;;;;;;;;;6044169;23;20175;-83
2022/03/14 08:49:34;;;;;;;3.80;0.80;;;;;;;;;;6044512;23;20164;-83
2022/03/14 08:52:45;;;;;;;;;;;;;;;;;;;;;
2022/03/14 08:59:12;;;;;;;3.10;0.70;;;;;;;;;;6019969;23;20166;-82
2022/03/14 09:04:41;;;;;;;3.90;0.77;;;;;;;;;;6015767;23;20183;-83
2022/03/14 09:07:40;;;;;;;3.33;0.90;;;;;;;;;;6017279;23;20636;-83
2022/03/14 09:14:18;;;;;;;3.03;1.00;;;;;;;;;;5961675;24;20214;-83
2022/03/14 09:17:17;;;;;;;2.53;0.70;;;;;;;;;;6046045;23;20232;-83
2022/03/14 09:19:56;;;;;;;1.47;0.70;;;;;;;;;;6012257;23;20157;-83
2022/03/14 09:27:36;;;;;;;2.33;0.70;;;;;;;;;;6199840;23;20188;-82
2022/03/14 09:30:09;;;;;;;0.93;0.50;;;;;;;;;;6190279;23;20208;-83
2022/03/14 09:39:35;;;;;;;1.33;0.50;;;;;;;;;;6073790;23;20215;-83
2022/03/14 09:42:23;;;;;;;1.20;0.63;;;;;;;;;;6195804;23;20212;-82
2022/03/14 09:47:46;;;;;;;3.10;0.73;;;;;;;;;;6163463;23;20233;-83
2022/03/14 10:03:12;;;;;;;1.83;0.67;;;;;;;;;;6046429;23;20178;-83
2022/03/14 10:06:13;;;;;;;1.43;0.53;;;;;;;;;;6021553;23;20153;-84
2022/03/14 10:18:26;;;;;;;1.83;0.57;;;;;;;;;;5944167;24;20168;-82
2022/03/14 10:21:38;;;;;;;;;;;;;;;;;;;;;
2022/03/14 10:33:50;;;;;;;3.50;0.80;;;;;;;;;;6055146;23;20180;-83
2022/03/14 10:36:40;;;;;;;3.20;0.60;;;;;;;;;;6101007;23;20163;-83
2022/03/14 10:39:45;;;;;;;16.93;1.17;;;;;;;;;;6157459;23;20209;-83
2022/03/14 10:42:13;;;;;;;5.90;0.63;;;;;;;;;;6198775;23;20267;-83
2022/03/14 10:54:56;;;;;;;0.90;0.40;;;;;;;;;;5935496;24;20203;-83
2022/03/14 11:09:07;;;;;;;1.00;0.50;;;;;;;;;;6222112;23;20626;-84
2022/03/14 11:26:05;;;;;;;1.90;0.60;;;;;;;;;;6166562;23;20161;-83
2022/03/14 11:28:47;;;;;;;1.70;0.70;;;;;;;;;;6160999;23;20194;-85
2022/03/14 11:33:53;;;;;;;0.90;0.60;;;;;;;;;;6222554;23;20554;-86
2022/03/14 11:36:35;;;;;;;1.80;0.40;;;;;;;;;;6223703;23;20183;-85
2022/03/14 11:39:04;;;;;;;1.30;0.60;;;;;;;;;;6220863;23;20149;-85
2022/03/14 11:48:19;;;;;;;2.13;0.50;;;;;;;;;;6224247;23;20137;-85
2022/03/14 12:00:44;;;;;;;1.33;0.50;;;;;;;;;;6074114;23;20145;-84
2022/03/14 12:10:11;;;;;;;1.23;0.83;;;;;;;;;;6225427;23;20145;-85
2022/03/14 12:12:58;;;;;;;2.90;0.80;;;;;;;;;;6133263;23;20381;-85
2022/03/14 12:18:59;;;;;;;1.10;0.50;;;;;;;;;;6084391;23;20149;-85
2022/03/14 12:21:56;;;;;;;;;;;;;;;;;;;;;
2022/03/14 13:03:18;;;;;;;;;;;;;;;;;;;;;
2022/03/14 13:21:06;;;;;;;1.80;0.80;;;;;;;;;;5880494;24;20239;-84
2022/03/14 13:24:36;;;;;;;1.27;0.60;;;;;;;;;;5859693;24;20189;-85
2022/03/14 13:30:33;;;;;;;;;;;;;;;;;;;;;
2022/03/14 13:55:20;;;;;;;;;;;;;;;;;;;;;
2022/03/14 13:58:20;;;;;;;0.97;0.60;;;;;;;;;;5997386;24;20156;-86
2022/03/14 14:07:56;;;;;;;;;;;;;;;;;;;;;
2022/03/14 14:16:42;;;;;;;2.87;0.70;;;;;;;;;;6019363;23;20161;-86
2022/03/14 14:22:42;;;;;;;2.57;0.70;;;;;;;;;;6076232;23;20172;-86
2022/03/14 14:25:14;;;;;;;22.10;1.47;;;;;;;;;;6159620;23;20209;-85
2022/03/14 14:27:50;;;;;;;5.17;0.70;;;;;;;;;;6192165;23;20643;-84
2022/03/14 14:30:16;;;;;;;1.53;0.90;;;;;;;;;;6191738;23;20150;-84
2022/03/14 14:32:42;;;;;;;3.57;1.73;;;;;;;;;;6191561;23;20181;-85
2022/03/14 14:35:08;;;;;;;2.00;0.70;;;;;;;;;;6190811;23;20178;-85
2022/03/14 14:37:34;;;;;;;1.13;0.60;;;;;;;;;;6192027;23;20146;-85
2022/03/14 14:40:01;;;;;;;1.87;0.80;;;;;;;;;;6165760;23;20147;-85
2022/03/14 14:42:27;;;;;;;1.53;0.90;;;;;;;;;;6192312;23;20312;-85
2022/03/14 14:44:57;;;;;;;1.47;0.90;;;;;;;;;;6191828;23;20229;-84
2022/03/14 14:47:25;;;;;;;3.30;1.40;;;;;;;;;;6193918;23;20150;-84
2022/03/14 14:49:51;;;;;;;2.23;0.90;;;;;;;;;;6192052;23;20154;-84
2022/03/14 14:52:18;;;;;;;2.90;0.80;;;;;;;;;;6192238;23;20184;-84
2022/03/14 14:54:44;;;;;;;2.10;0.53;;;;;;;;;;6192460;23;20199;-84
2022/03/14 14:57:12;;;;;;;3.47;0.93;;;;;;;;;;6191624;23;20198;-84
2022/03/14 14:59:40;;;;;;;1.77;0.90;;;;;;;;;;6193929;23;20198;-85
2022/03/14 15:02:06;;;;;;;1.33;0.53;;;;;;;;;;6195258;23;20154;-84
2022/03/14 15:04:38;;;;;;;1.90;0.90;;;;;;;;;;6168456;23;20174;-85
2022/03/14 15:07:04;;;;;;;3.33;0.90;;;;;;;;;;6193781;23;20178;-84
2022/03/14 15:09:30;;;;;;;2.03;0.80;;;;;;;;;;6192626;23;20153;-85
2022/03/14 15:11:56;;;;;;;4.00;0.80;;;;;;;;;;6192446;23;20630;-84
2022/03/14 15:14:27;;;;;;;3.70;0.93;;;;;;;;;;6191789;23;20186;-84
2022/03/14 15:16:53;;;;;;;1.97;0.90;;;;;;;;;;6192538;23;20189;-84
2022/03/14 15:19:19;;;;;;;1.60;0.70;;;;;;;;;;6193834;23;20146;-84
2022/03/14 15:21:45;;;;;;;1.50;0.70;;;;;;;;;;6167944;23;20161;-85
2022/03/14 15:24:12;;;;;;;5.20;1.37;;;;;;;;;;6162210;23;20215;-84
2022/03/14 15:26:38;;;;;;;1.97;1.10;;;;;;;;;;6162351;23;20235;-84
2022/03/14 15:29:05;;;;;;;3.00;0.77;;;;;;;;;;6162903;23;20515;-85
2022/03/14 15:31:31;;;;;;;1.60;0.80;;;;;;;;;;6162133;23;20155;-84
2022/03/14 15:33:57;;;;;;;1.90;0.80;;;;;;;;;;6162558;23;20179;-85
2022/03/14 15:36:23;;;;;;;1.00;0.60;;;;;;;;;;6162271;23;20477;-84
2022/03/14 15:38:49;;;;;;;1.73;0.70;;;;;;;;;;6168765;23;20190;-84
2022/03/14 15:41:18;;;;;;;5.57;1.10;;;;;;;;;;6176068;23;20155;-83
2022/03/14 15:43:44;;;;;;;1.30;0.70;;;;;;;;;;6174373;23;20171;-84
2022/03/14 15:46:20;;;;;;;1.63;0.50;;;;;;;;;;6175172;23;20143;-84
2022/03/14 15:49:06;;;;;;;2.07;0.77;;;;;;;;;;6175935;23;20142;-81
2022/03/14 15:51:34;;;;;;;4.00;0.73;;;;;;;;;;6176218;23;20131;-81
2022/03/14 15:54:00;;;;;;;2.83;0.70;;;;;;;;;;6166522;23;20189;-85
2022/03/14 15:56:27;;;;;;;1.47;0.90;;;;;;;;;;6168976;23;20147;-84
2022/03/14 15:58:53;;;;;;;4.40;0.90;;;;;;;;;;6170223;23;20151;-86
2022/03/14 16:01:22;;;;;;;3.43;0.80;;;;;;;;;;6172137;23;20210;-85
2022/03/14 16:03:48;;;;;;;1.37;0.83;;;;;;;;;;6173803;23;20179;-85
2022/03/14 16:06:16;;;;;;;2.00;0.70;;;;;;;;;;6177931;23;20170;-85
2022/03/14 16:08:42;;;;;;;2.83;0.63;;;;;;;;;;6179823;23;20142;-85
2022/03/14 16:11:08;;;;;;;3.07;1.13;;;;;;;;;;6175728;23;20159;-86
2022/03/14 16:13:34;;;;;;;6.20;1.20;;;;;;;;;;6175441;23;20167;-85
2022/03/14 16:16:00;;;;;;;2.03;1.63;;;;;;;;;;6175991;23;20163;-86
2022/03/14 16:18:27;;;;;;;1.80;1.00;;;;;;;;;;6175833;23;20227;-85
2022/03/14 16:20:53;;;;;;;3.43;1.80;;;;;;;;;;6176517;23;20151;-85
2022/03/14 16:23:19;;;;;;;3.53;0.90;;;;;;;;;;6176539;23;20158;-84
2022/03/14 16:25:48;;;;;;;1.60;1.07;;;;;;;;;;6205772;23;20593;-85
2022/03/14 16:28:14;;;;;;;3.13;1.97;;;;;;;;;;6206410;23;20157;-85
2022/03/14 16:30:41;;;;;;;3.27;0.70;;;;;;;;;;6207435;23;20181;-84
2022/03/14 16:33:07;;;;;;;5.67;1.10;;;;;;;;;;6182183;23;20154;-85
2022/03/14 16:35:33;;;;;;;15.50;1.20;;;;;;;;;;6180368;23;20183;-85
2022/03/14 16:38:00;;;;;;;3.90;1.10;;;;;;;;;;6181990;23;20201;-85
2022/03/14 16:40:29;;;;;;;1.10;0.50;;;;;;;;;;6208189;23;20154;-85
2022/03/14 16:42:55;;;;;;;4.90;1.00;;;;;;;;;;6206914;23;20170;-85
2022/03/14 16:45:23;;;;;;;2.50;0.80;;;;;;;;;;6205634;23;20185;-85
2022/03/14 16:47:53;;;;;;;1.70;0.77;;;;;;;;;;6180633;23;20154;-85
2022/03/14 16:50:20;;;;;;;1.77;0.90;;;;;;;;;;6178898;23;20154;-85
2022/03/14 16:52:46;;;;;;;3.50;3.20;;;;;;;;;;6204644;23;20165;-85
2022/03/14 16:55:13;;;;;;;9.83;6.17;;;;;;;;;;6178660;23;20503;-85
2022/03/14 16:57:39;;;;;;;3.50;3.20;;;;;;;;;;6206253;23;20150;-85
2022/03/14 17:00:06;;;;;;;4.60;2.20;;;;;;;;;;6206845;23;20201;-86
2022/03/14 17:02:38;;;;;;;5.17;4.67;;;;;;;;;;6206524;23;20160;-85
2022/03/14 17:05:33;;;;;;;2.53;1.10;;;;;;;;;;6206733;23;20175;-85
2022/03/14 17:07:59;;;;;;;1.53;0.93;;;;;;;;;;6176980;23;20308;-85
2022/03/14 17:10:39;;;;;;;1.17;0.80;;;;;;;;;;6180897;23;20201;-85
2022/03/14 17:13:10;;;;;;;1.20;0.60;;;;;;;;;;6179421;23;20157;-85
2022/03/14 17:15:37;;;;;;;1.30;0.53;;;;;;;;;;6206027;23;20182;-85
2022/03/14 17:18:06;;;;;;;1.43;0.60;;;;;;;;;;6179900;23;20235;-85
2022/03/14 17:20:37;;;;;;;2.70;1.00;;;;;;;;;;6179127;23;20177;-85
2022/03/14 17:23:04;;;;;;;5.43;1.00;;;;;;;;;;6179958;23;20155;-85
2022/03/14 17:25:31;;;;;;;4.20;1.10;;;;;;;;;;6204313;23;20193;-85
2022/03/14 17:27:57;;;;;;;5.23;1.10;;;;;;;;;;6179710;23;20569;-85
2022/03/14 17:30:23;;;;;;;4.67;1.37;;;;;;;;;;6205555;23;20150;-85
2022/03/14 17:32:50;;;;;;;2.37;0.90;;;;;;;;;;6203563;23;20160;-85
2022/03/14 17:35:16;;;;;;;3.33;0.90;;;;;;;;;;6204836;23;20175;-85
2022/03/14 17:37:42;;;;;;;2.37;1.17;;;;;;;;;;6179400;23;20184;-85
2022/03/14 17:40:10;;;;;;;4.27;1.17;;;;;;;;;;6206024;23;20149;-85
2022/03/14 17:42:36;;;;;;;5.33;1.10;;;;;;;;;;6205133;23;20181;-84
2022/03/14 17:45:04;;;;;;;3.60;1.00;;;;;;;;;;6204556;23;20223;-84
2022/03/14 17:47:34;;;;;;;6.50;1.03;;;;;;;;;;6204627;23;20155;-84
2022/03/14 17:50:00;;;;;;;4.93;1.10;;;;;;;;;;6205802;23;20146;-84
2022/03/14 17:52:26;;;;;;;3.67;0.80;;;;;;;;;;6207330;23;20154;-85
2022/03/14 17:54:52;;;;;;;4.90;1.00;;;;;;;;;;6206065;23;20181;-84
2022/03/14 17:57:19;;;;;;;8.50;1.20;;;;;;;;;;6206321;23;20150;-84
2022/03/14 17:59:46;;;;;;;6.00;1.93;;;;;;;;;;6205445;23;20153;-84
2022/03/14 18:02:12;;;;;;;5.83;1.53;;;;;;;;;;6205507;23;20199;-84
2022/03/14 18:04:38;;;;;;;3.77;2.00;;;;;;;;;;6205633;23;20274;-84
2022/03/14 18:07:05;;;;;;;3.53;1.53;;;;;;;;;;6179260;23;20166;-84
2022/03/14 18:09:31;;;;;;;5.60;1.60;;;;;;;;;;6179263;23;20158;-84
2022/03/14 18:11:58;;;;;;;2.93;1.30;;;;;;;;;;6206470;23;20147;-84
2022/03/14 18:14:24;;;;;;;1.80;1.50;;;;;;;;;;6200310;23;20186;-84
2022/03/14 18:16:50;;;;;;;6.07;1.83;;;;;;;;;;6179563;23;20146;-84
2022/03/14 18:19:16;;;;;;;2.90;1.03;;;;;;;;;;6203332;23;20171;-84
2022/03/14 18:21:42;;;;;;;2.00;1.03;;;;;;;;;;6205378;23;20155;-84
2022/03/14 18:24:09;;;;;;;1.53;1.10;;;;;;;;;;6180374;23;20201;-84
2022/03/14 18:26:35;;;;;;;2.93;1.30;;;;;;;;;;6179801;23;20161;-84
2022/03/14 18:29:01;;;;;;;2.33;1.07;;;;;;;;;;6203399;23;20153;-84
2022/03/14 18:31:27;;;;;;;4.70;1.30;;;;;;;;;;6178003;23;20218;-84
2022/03/14 18:33:56;;;;;;;5.73;5.13;;;;;;;;;;6177770;23;20182;-84
2022/03/14 18:36:22;;;;;;;6.57;1.03;;;;;;;;;;6173489;23;20155;-85
2022/03/14 18:38:49;;;;;;;5.63;1.40;;;;;;;;;;6181659;23;20155;-83
2022/03/14 18:41:19;;;;;;;6.23;1.60;;;;;;;;;;6205730;23;20182;-84
2022/03/14 18:43:46;;;;;;;4.83;3.07;;;;;;;;;;6203230;23;20170;-84
2022/03/14 18:46:13;;;;;;;4.13;1.63;;;;;;;;;;6179253;23;20150;-83
2022/03/14 18:48:39;;;;;;;3.80;2.03;;;;;;;;;;6179756;23;20154;-84
2022/03/14 18:51:06;;;;;;;3.80;1.67;;;;;;;;;;6178388;23;20862;-84
2022/03/14 18:53:32;;;;;;;4.53;1.87;;;;;;;;;;6177919;23;20151;-85
2022/03/14 18:55:58;;;;;;;3.97;1.80;;;;;;;;;;6206043;23;20206;-84
2022/03/14 18:58:25;;;;;;;6.43;1.90;;;;;;;;;;6180584;23;20170;-84